sensor_id;sensor_type;location;lat;lon;timestamp;pressure;altitude;pressure_sealevel;temperature;humidity
6194;BME280;3130;41.564;23.280;2023-04-16T00:00:17;98314.09;;;11.66;nan
6194;BME280;3130;41.564;23.280;2023-04-16T00:02:44;98381.13;;;12.19;nan
6194;BME280;3130;41.564;23.280;2023-04-16T00:05:12;98376.66;;;12.21;nan
6194;BME280;3130;41.564;23.280;2023-04-16T00:07:39;98383.22;;;12.25;nan
6194;BME280;3130;41.564;23.280;2023-04-16T00:10:07;98378.00;;;12.27;nan
6194;BME280;3130;41.564;23.280;2023-04-16T00:12:35;98329.47;;;12.11;nan
6194;BME280;3130;41.564;23.280;2023-04-16T00:15:03;98381.63;;;12.46;nan
6194;BME280;3130;41.564;23.280;2023-04-16T00:17:30;98354.28;;;12.34;nan
6194;BME280;3130;41.564;23.280;2023-04-16T00:19:57;98376.25;;;12.60;nan
6194;BME280;3130;41.564;23.280;2023-04-16T00:22:24;98370.84;;;12.19;nan
6194;BME280;3130;41.564;23.280;2023-04-16T00:24:51;98357.75;;;12.11;nan
6194;BME280;3130;41.564;23.280;2023-04-16T00:27:18;98367.56;;;12.17;nan
6194;BME280;3130;41.564;23.280;2023-04-16T00:29:46;98368.81;;;12.01;nan
6194;BME280;3130;41.564;23.280;2023-04-16T00:32:13;98368.59;;;12.04;nan
6194;BME280;3130;41.564;23.280;2023-04-16T00:34:41;98321.28;;;11.85;nan
6194;BME280;3130;41.564;23.280;2023-04-16T00:37:08;98371.63;;;11.98;nan
6194;BME280;3130;41.564;23.280;2023-04-16T00:39:35;98366.81;;;11.83;nan
6194;BME280;3130;41.564;23.280;2023-04-16T00:42:02;98365.63;;;11.87;nan
6194;BME280;3130;41.564;23.280;2023-04-16T00:44:29;98371.00;;;11.84;nan
6194;BME280;3130;41.564;23.280;2023-04-16T00:47:01;98337.22;;;11.66;nan
6194;BME280;3130;41.564;23.280;2023-04-16T00:49:28;98365.13;;;11.71;nan
6194;BME280;3130;41.564;23.280;2023-04-16T00:51:56;98366.75;;;11.72;nan
6194;BME280;3130;41.564;23.280;2023-04-16T00:54:24;98363.47;;;11.70;nan
6194;BME280;3130;41.564;23.280;2023-04-16T00:56:51;98342.13;;;11.46;nan
6194;BME280;3130;41.564;23.280;2023-04-16T00:59:18;98373.84;;;11.57;nan
6194;BME280;3130;41.564;23.280;2023-04-16T01:01:45;98279.25;;;11.17;nan
6194;BME280;3130;41.564;23.280;2023-04-16T01:04:15;98369.22;;;11.73;nan
6194;BME280;3130;41.564;23.280;2023-04-16T01:06:42;98299.84;;;11.28;nan
6194;BME280;3130;41.564;23.280;2023-04-16T01:09:09;98229.41;;;10.74;nan
6194;BME280;3130;41.564;23.280;2023-04-16T01:11:37;98360.47;;;11.52;nan
6194;BME280;3130;41.564;23.280;2023-04-16T01:14:04;98369.72;;;11.55;nan
6194;BME280;3130;41.564;23.280;2023-04-16T01:16:31;98375.97;;;11.51;nan
6194;BME280;3130;41.564;23.280;2023-04-16T01:18:58;98342.22;;;11.44;nan
6194;BME280;3130;41.564;23.280;2023-04-16T01:21:27;98372.34;;;11.66;nan
6194;BME280;3130;41.564;23.280;2023-04-16T01:23:54;98376.22;;;11.71;nan
6194;BME280;3130;41.564;23.280;2023-04-16T01:26:21;98367.38;;;11.75;nan
6194;BME280;3130;41.564;23.280;2023-04-16T01:28:48;98361.72;;;11.59;nan
6194;BME280;3130;41.564;23.280;2023-04-16T01:31:15;98373.72;;;11.59;nan
6194;BME280;3130;41.564;23.280;2023-04-16T01:33:42;98375.13;;;11.63;nan
6194;BME280;3130;41.564;23.280;2023-04-16T01:36:09;98356.16;;;11.53;nan
6194;BME280;3130;41.564;23.280;2023-04-16T01:38:38;98281.59;;;10.97;nan
6194;BME280;3130;41.564;23.280;2023-04-16T01:41:05;98370.47;;;11.44;nan
6194;BME280;3130;41.564;23.280;2023-04-16T01:43:32;98368.41;;;11.26;nan
6194;BME280;3130;41.564;23.280;2023-04-16T01:46:11;98346.56;;;10.97;nan
6194;BME280;3130;41.564;23.280;2023-04-16T01:48:39;98333.78;;;10.85;nan
6194;BME280;3130;41.564;23.280;2023-04-16T01:51:06;98246.06;;;10.33;nan
6194;BME280;3130;41.564;23.280;2023-04-16T01:53:33;98360.25;;;11.08;nan
6194;BME280;3130;41.564;23.280;2023-04-16T01:56:02;98291.75;;;10.75;nan
6194;BME280;3130;41.564;23.280;2023-04-16T01:58:29;98352.50;;;11.21;nan
6194;BME280;3130;41.564;23.280;2023-04-16T02:00:57;98353.94;;;11.25;nan
6194;BME280;3130;41.564;23.280;2023-04-16T02:03:24;98356.66;;;11.11;nan
6194;BME280;3130;41.564;23.280;2023-04-16T02:05:51;98348.63;;;11.15;nan
6194;BME280;3130;41.564;23.280;2023-04-16T02:08:19;98346.66;;;11.19;nan
6194;BME280;3130;41.564;23.280;2023-04-16T02:10:46;98347.38;;;11.21;nan
6194;BME280;3130;41.564;23.280;2023-04-16T02:13:15;98346.44;;;11.22;nan
6194;BME280;3130;41.564;23.280;2023-04-16T02:15:45;98337.63;;;11.26;nan
6194;BME280;3130;41.564;23.280;2023-04-16T02:18:13;98338.91;;;11.31;nan
6194;BME280;3130;41.564;23.280;2023-04-16T02:20:40;98346.66;;;11.42;nan
6194;BME280;3130;41.564;23.280;2023-04-16T02:23:07;98329.47;;;11.32;nan
6194;BME280;3130;41.564;23.280;2023-04-16T02:25:38;98340.94;;;11.39;nan
6194;BME280;3130;41.564;23.280;2023-04-16T02:28:06;98334.53;;;11.44;nan
6194;BME280;3130;41.564;23.280;2023-04-16T02:30:35;98339.94;;;11.52;nan
6194;BME280;3130;41.564;23.280;2023-04-16T02:33:03;98306.03;;;11.36;nan
6194;BME280;3130;41.564;23.280;2023-04-16T02:35:31;98336.03;;;11.59;nan
6194;BME280;3130;41.564;23.280;2023-04-16T02:37:59;98329.84;;;11.62;nan
6194;BME280;3130;41.564;23.280;2023-04-16T02:40:26;98324.00;;;11.60;nan
6194;BME280;3130;41.564;23.280;2023-04-16T02:42:54;98322.38;;;11.70;nan
6194;BME280;3130;41.564;23.280;2023-04-16T02:45:22;98319.59;;;11.73;nan
6194;BME280;3130;41.564;23.280;2023-04-16T02:47:50;98319.03;;;11.80;nan
6194;BME280;3130;41.564;23.280;2023-04-16T02:50:17;98320.31;;;11.75;nan
6194;BME280;3130;41.564;23.280;2023-04-16T02:52:45;98285.63;;;11.58;nan
6194;BME280;3130;41.564;23.280;2023-04-16T02:55:11;98286.91;;;11.64;nan
6194;BME280;3130;41.564;23.280;2023-04-16T02:57:38;98311.81;;;11.85;nan
6194;BME280;3130;41.564;23.280;2023-04-16T03:00:08;98290.06;;;11.78;nan
6194;BME280;3130;41.564;23.280;2023-04-16T03:02:35;98313.00;;;11.92;nan
6194;BME280;3130;41.564;23.280;2023-04-16T03:05:04;98312.28;;;11.90;nan
6194;BME280;3130;41.564;23.280;2023-04-16T03:07:31;98308.44;;;11.85;nan
6194;BME280;3130;41.564;23.280;2023-04-16T03:09:58;98310.16;;;11.95;nan
6194;BME280;3130;41.564;23.280;2023-04-16T03:12:25;98302.09;;;11.78;nan
6194;BME280;3130;41.564;23.280;2023-04-16T03:14:52;98319.66;;;11.95;nan
6194;BME280;3130;41.564;23.280;2023-04-16T03:17:19;98282.22;;;11.69;nan
6194;BME280;3130;41.564;23.280;2023-04-16T03:19:46;98327.22;;;11.96;nan
6194;BME280;3130;41.564;23.280;2023-04-16T03:22:16;98325.84;;;12.03;nan
6194;BME280;3130;41.564;23.280;2023-04-16T03:24:43;98325.75;;;12.15;nan
6194;BME280;3130;41.564;23.280;2023-04-16T03:27:10;98331.59;;;12.17;nan
6194;BME280;3130;41.564;23.280;2023-04-16T03:29:37;98328.09;;;12.18;nan
6194;BME280;3130;41.564;23.280;2023-04-16T03:32:04;98333.34;;;12.17;nan
6194;BME280;3130;41.564;23.280;2023-04-16T03:34:31;98339.50;;;12.03;nan
6194;BME280;3130;41.564;23.280;2023-04-16T03:36:58;98305.97;;;11.83;nan
6194;BME280;3130;41.564;23.280;2023-04-16T03:39:26;98337.41;;;11.98;nan
6194;BME280;3130;41.564;23.280;2023-04-16T03:41:53;98336.13;;;12.03;nan
6194;BME280;3130;41.564;23.280;2023-04-16T03:44:20;98334.75;;;12.10;nan
6194;BME280;3130;41.564;23.280;2023-04-16T03:46:47;98336.13;;;12.03;nan
6194;BME280;3130;41.564;23.280;2023-04-16T03:49:14;98329.34;;;11.91;nan
6194;BME280;3130;41.564;23.280;2023-04-16T03:51:41;98336.28;;;11.78;nan
6194;BME280;3130;41.564;23.280;2023-04-16T03:54:08;98332.66;;;11.70;nan
6194;BME280;3130;41.564;23.280;2023-04-16T03:56:38;98331.13;;;11.67;nan
6194;BME280;3130;41.564;23.280;2023-04-16T03:59:05;98327.78;;;11.67;nan
6194;BME280;3130;41.564;23.280;2023-04-16T04:01:32;98304.75;;;11.65;nan
6194;BME280;3130;41.564;23.280;2023-04-16T04:03:59;98186.25;;;11.02;nan
6194;BME280;3130;41.564;23.280;2023-04-16T04:06:26;98320.00;;;11.90;nan
6194;BME280;3130;41.564;23.280;2023-04-16T04:08:53;98317.34;;;12.03;nan
6194;BME280;3130;41.564;23.280;2023-04-16T04:11:20;98326.31;;;12.08;nan
6194;BME280;3130;41.564;23.280;2023-04-16T04:13:49;98317.34;;;12.03;nan
6194;BME280;3130;41.564;23.280;2023-04-16T04:16:16;98322.59;;;12.12;nan
6194;BME280;3130;41.564;23.280;2023-04-16T04:18:43;98289.28;;;12.00;nan
6194;BME280;3130;41.564;23.280;2023-04-16T04:21:10;98330.53;;;12.31;nan
6194;BME280;3130;41.564;23.280;2023-04-16T04:23:37;98280.78;;;12.10;nan
6194;BME280;3130;41.564;23.280;2023-04-16T04:26:06;98339.19;;;12.52;nan
6194;BME280;3130;41.564;23.280;2023-04-16T04:28:34;98342.34;;;12.66;nan
6194;BME280;3130;41.564;23.280;2023-04-16T04:31:02;98309.84;;;12.65;nan
6194;BME280;3130;41.564;23.280;2023-04-16T04:33:29;98334.81;;;12.96;nan
6194;BME280;3130;41.564;23.280;2023-04-16T04:35:57;98328.28;;;13.03;nan
6194;BME280;3130;41.564;23.280;2023-04-16T04:38:24;98337.03;;;13.11;nan
6194;BME280;3130;41.564;23.280;2023-04-16T04:40:51;98286.56;;;12.67;nan
6194;BME280;3130;41.564;23.280;2023-04-16T04:43:18;98333.75;;;12.88;nan
6194;BME280;3130;41.564;23.280;2023-04-16T04:45:45;98303.28;;;12.72;nan
6194;BME280;3130;41.564;23.280;2023-04-16T04:48:15;98333.19;;;12.95;nan
6194;BME280;3130;41.564;23.280;2023-04-16T04:50:43;98317.19;;;12.92;nan
6194;BME280;3130;41.564;23.280;2023-04-16T04:53:11;98327.75;;;13.09;nan
6194;BME280;3130;41.564;23.280;2023-04-16T04:55:39;98338.09;;;12.98;nan
6194;BME280;3130;41.564;23.280;2023-04-16T04:58:07;98306.53;;;12.74;nan
6194;BME280;3130;41.564;23.280;2023-04-16T05:00:34;98332.69;;;13.12;nan
6194;BME280;3130;41.564;23.280;2023-04-16T05:03:02;98338.25;;;13.28;nan
6194;BME280;3130;41.564;23.280;2023-04-16T05:05:31;98308.41;;;13.25;nan
6194;BME280;3130;41.564;23.280;2023-04-16T05:07:57;98338.22;;;13.39;nan
6194;BME280;3130;41.564;23.280;2023-04-16T05:10:25;98336.28;;;13.52;nan
6194;BME280;3130;41.564;23.280;2023-04-16T05:12:52;98333.09;;;13.59;nan
6194;BME280;3130;41.564;23.280;2023-04-16T05:15:19;98234.31;;;13.08;nan
6194;BME280;3130;41.564;23.280;2023-04-16T05:17:46;98335.34;;;13.73;nan
6194;BME280;3130;41.564;23.280;2023-04-16T05:20:13;98333.84;;;13.71;nan
6194;BME280;3130;41.564;23.280;2023-04-16T05:22:42;98323.13;;;13.86;nan
6194;BME280;3130;41.564;23.280;2023-04-16T05:25:09;98301.81;;;13.84;nan
6194;BME280;3130;41.564;23.280;2023-04-16T05:27:36;98324.03;;;14.06;nan
6194;BME280;3130;41.564;23.280;2023-04-16T05:30:03;98318.06;;;14.05;nan
6194;BME280;3130;41.564;23.280;2023-04-16T05:32:31;98327.56;;;14.25;nan
6194;BME280;3130;41.564;23.280;2023-04-16T05:34:57;98331.41;;;14.30;nan
6194;BME280;3130;41.564;23.280;2023-04-16T05:37:24;98342.00;;;14.37;nan
6194;BME280;3130;41.564;23.280;2023-04-16T05:39:53;98335.50;;;14.42;nan
6194;BME280;3130;41.564;23.280;2023-04-16T05:42:20;98311.13;;;14.26;nan
6194;BME280;3130;41.564;23.280;2023-04-16T05:44:47;98337.00;;;14.45;nan
6194;BME280;3130;41.564;23.280;2023-04-16T05:47:14;98307.13;;;14.42;nan
6194;BME280;3130;41.564;23.280;2023-04-16T05:49:41;98327.09;;;14.40;nan
6194;BME280;3130;41.564;23.280;2023-04-16T05:52:08;98324.03;;;14.56;nan
6194;BME280;3130;41.564;23.280;2023-04-16T05:54:35;98302.31;;;14.58;nan
6194;BME280;3130;41.564;23.280;2023-04-16T05:57:04;98328.41;;;14.65;nan
6194;BME280;3130;41.564;23.280;2023-04-16T05:59:31;98331.50;;;14.59;nan
6194;BME280;3130;41.564;23.280;2023-04-16T06:01:58;98309.22;;;14.48;nan
6194;BME280;3130;41.564;23.280;2023-04-16T06:04:25;98299.31;;;14.23;nan
6194;BME280;3130;41.564;23.280;2023-04-16T06:06:52;98340.41;;;14.45;nan
6194;BME280;3130;41.564;23.280;2023-04-16T06:09:20;98340.16;;;14.48;nan
6194;BME280;3130;41.564;23.280;2023-04-16T06:11:47;98347.22;;;14.26;nan
6194;BME280;3130;41.564;23.280;2023-04-16T06:14:16;98335.97;;;14.27;nan
6194;BME280;3130;41.564;23.280;2023-04-16T06:16:43;98340.63;;;13.92;nan
6194;BME280;3130;41.564;23.280;2023-04-16T06:19:10;98312.66;;;13.47;nan
6194;BME280;3130;41.564;23.280;2023-04-16T06:21:37;98338.63;;;13.55;nan
6194;BME280;3130;41.564;23.280;2023-04-16T06:24:04;98342.13;;;13.54;nan
6194;BME280;3130;41.564;23.280;2023-04-16T06:26:31;98299.28;;;13.21;nan
6194;BME280;3130;41.564;23.280;2023-04-16T06:28:59;98249.22;;;12.83;nan
6194;BME280;3130;41.564;23.280;2023-04-16T06:31:28;98346.72;;;13.50;nan
6194;BME280;3130;41.564;23.280;2023-04-16T06:33:55;98339.69;;;13.73;nan
6194;BME280;3130;41.564;23.280;2023-04-16T06:36:22;98342.22;;;14.04;nan
6194;BME280;3130;41.564;23.280;2023-04-16T06:38:51;98316.44;;;14.24;nan
6194;BME280;3130;41.564;23.280;2023-04-16T06:41:18;98261.28;;;14.16;nan
6194;BME280;3130;41.564;23.280;2023-04-16T06:43:47;98250.50;;;14.31;nan
6194;BME280;3130;41.564;23.280;2023-04-16T06:46:14;98314.91;;;15.01;nan
6194;BME280;3130;41.564;23.280;2023-04-16T06:48:42;98323.25;;;15.42;nan
6194;BME280;3130;41.564;23.280;2023-04-16T06:51:09;98333.59;;;15.70;nan
6194;BME280;3130;41.564;23.280;2023-04-16T06:53:37;98328.78;;;16.04;nan
6194;BME280;3130;41.564;23.280;2023-04-16T06:56:05;98241.41;;;15.98;nan
6194;BME280;3130;41.564;23.280;2023-04-16T06:58:32;98332.97;;;16.87;nan
6194;BME280;3130;41.564;23.280;2023-04-16T07:00:59;98332.50;;;17.18;nan
6194;BME280;3130;41.564;23.280;2023-04-16T07:03:27;98330.47;;;17.39;nan
6194;BME280;3130;41.564;23.280;2023-04-16T07:05:55;98328.25;;;17.44;nan
6194;BME280;3130;41.564;23.280;2023-04-16T07:08:22;98325.16;;;18.51;nan
6194;BME280;3130;41.564;23.280;2023-04-16T07:10:50;98222.66;;;18.95;nan
6194;BME280;3130;41.564;23.280;2023-04-16T07:13:18;98330.88;;;20.63;nan
6194;BME280;3130;41.564;23.280;2023-04-16T07:15:46;98311.84;;;21.91;nan
6194;BME280;3130;41.564;23.280;2023-04-16T07:18:13;98329.88;;;23.30;nan
6194;BME280;3130;41.564;23.280;2023-04-16T07:20:40;98326.47;;;24.47;nan
6194;BME280;3130;41.564;23.280;2023-04-16T07:23:08;98302.97;;;25.07;nan
6194;BME280;3130;41.564;23.280;2023-04-16T07:25:35;98325.75;;;26.50;nan
6194;BME280;3130;41.564;23.280;2023-04-16T07:28:02;98319.00;;;26.73;nan
6194;BME280;3130;41.564;23.280;2023-04-16T07:30:30;98318.03;;;26.62;nan
6194;BME280;3130;41.564;23.280;2023-04-16T07:32:59;98321.78;;;25.23;nan
6194;BME280;3130;41.564;23.280;2023-04-16T07:35:26;98324.09;;;25.52;nan
6194;BME280;3130;41.564;23.280;2023-04-16T07:37:53;98317.44;;;24.90;nan
6194;BME280;3130;41.564;23.280;2023-04-16T07:40:22;98318.66;;;24.26;nan
6194;BME280;3130;41.564;23.280;2023-04-16T07:42:49;98307.56;;;23.76;nan
6194;BME280;3130;41.564;23.280;2023-04-16T07:45:16;98311.34;;;23.11;nan
6194;BME280;3130;41.564;23.280;2023-04-16T07:47:44;98245.63;;;22.21;nan
6194;BME280;3130;41.564;23.280;2023-04-16T07:50:11;98289.88;;;21.85;nan
6194;BME280;3130;41.564;23.280;2023-04-16T07:52:38;98296.09;;;21.39;nan
6194;BME280;3130;41.564;23.280;2023-04-16T07:55:07;98231.13;;;21.08;nan
6194;BME280;3130;41.564;23.280;2023-04-16T07:57:36;98304.91;;;20.78;nan
6194;BME280;3130;41.564;23.280;2023-04-16T08:00:04;98291.00;;;19.69;nan
6194;BME280;3130;41.564;23.280;2023-04-16T08:02:31;98302.50;;;19.19;nan
6194;BME280;3130;41.564;23.280;2023-04-16T08:04:59;98294.22;;;19.15;nan
6194;BME280;3130;41.564;23.280;2023-04-16T08:07:26;98306.59;;;19.37;nan
6194;BME280;3130;41.564;23.280;2023-04-16T08:09:53;98257.81;;;19.63;nan
6194;BME280;3130;41.564;23.280;2023-04-16T08:12:20;98294.19;;;20.27;nan
6194;BME280;3130;41.564;23.280;2023-04-16T08:14:49;98300.06;;;20.67;nan
6194;BME280;3130;41.564;23.280;2023-04-16T08:17:16;98296.75;;;20.89;nan
6194;BME280;3130;41.564;23.280;2023-04-16T08:19:43;98304.19;;;21.22;nan
6194;BME280;3130;41.564;23.280;2023-04-16T08:22:10;98297.25;;;21.37;nan
6194;BME280;3130;41.564;23.280;2023-04-16T08:24:37;98297.06;;;21.83;nan
6194;BME280;3130;41.564;23.280;2023-04-16T08:27:05;98285.97;;;22.04;nan
6194;BME280;3130;41.564;23.280;2023-04-16T08:29:32;98187.50;;;21.61;nan
6194;BME280;3130;41.564;23.280;2023-04-16T08:32:00;98270.06;;;21.76;nan
6194;BME280;3130;41.564;23.280;2023-04-16T08:34:27;98288.59;;;21.81;nan
6194;BME280;3130;41.564;23.280;2023-04-16T08:36:54;98270.50;;;21.80;nan
6194;BME280;3130;41.564;23.280;2023-04-16T08:39:22;98294.41;;;21.91;nan
6194;BME280;3130;41.564;23.280;2023-04-16T08:41:51;98285.81;;;21.83;nan
6194;BME280;3130;41.564;23.280;2023-04-16T08:44:23;98287.59;;;21.68;nan
6194;BME280;3130;41.564;23.280;2023-04-16T08:46:52;98287.13;;;21.64;nan
6194;BME280;3130;41.564;23.280;2023-04-16T08:49:23;98283.97;;;21.02;nan
6194;BME280;3130;41.564;23.280;2023-04-16T08:51:52;98283.59;;;20.66;nan
6194;BME280;3130;41.564;23.280;2023-04-16T08:54:30;98249.34;;;19.77;nan
6194;BME280;3130;41.564;23.280;2023-04-16T08:56:59;98279.59;;;19.86;nan
6194;BME280;3130;41.564;23.280;2023-04-16T08:59:31;98276.66;;;20.05;nan
6194;BME280;3130;41.564;23.280;2023-04-16T09:01:58;98272.78;;;19.93;nan
6194;BME280;3130;41.564;23.280;2023-04-16T09:04:27;98273.06;;;20.14;nan
6194;BME280;3130;41.564;23.280;2023-04-16T09:06:55;98282.81;;;20.20;nan
6194;BME280;3130;41.564;23.280;2023-04-16T09:09:25;98236.97;;;19.87;nan
6194;BME280;3130;41.564;23.280;2023-04-16T09:11:52;98279.44;;;20.49;nan
6194;BME280;3130;41.564;23.280;2023-04-16T09:14:20;98285.16;;;20.53;nan
6194;BME280;3130;41.564;23.280;2023-04-16T09:16:48;98285.59;;;20.18;nan
6194;BME280;3130;41.564;23.280;2023-04-16T09:19:15;98285.28;;;19.89;nan
6194;BME280;3130;41.564;23.280;2023-04-16T09:21:45;98281.72;;;19.82;nan
6194;BME280;3130;41.564;23.280;2023-04-16T09:24:13;98278.44;;;19.96;nan
6194;BME280;3130;41.564;23.280;2023-04-16T09:26:40;98281.56;;;20.00;nan
6194;BME280;3130;41.564;23.280;2023-04-16T09:29:08;98280.38;;;20.18;nan
6194;BME280;3130;41.564;23.280;2023-04-16T09:31:35;98276.06;;;20.41;nan
6194;BME280;3130;41.564;23.280;2023-04-16T09:34:03;98269.03;;;20.49;nan
6194;BME280;3130;41.564;23.280;2023-04-16T09:36:31;98274.53;;;20.62;nan
6194;BME280;3130;41.564;23.280;2023-04-16T09:39:00;98273.31;;;20.81;nan
6194;BME280;3130;41.564;23.280;2023-04-16T09:41:29;98256.03;;;20.88;nan
6194;BME280;3130;41.564;23.280;2023-04-16T09:43:57;98275.13;;;20.72;nan
6194;BME280;3130;41.564;23.280;2023-04-16T09:46:28;98268.28;;;20.71;nan
6194;BME280;3130;41.564;23.280;2023-04-16T09:48:56;98246.78;;;19.37;nan
6194;BME280;3130;41.564;23.280;2023-04-16T09:51:23;98243.84;;;19.64;nan
6194;BME280;3130;41.564;23.280;2023-04-16T09:53:51;98253.09;;;19.82;nan
6194;BME280;3130;41.564;23.280;2023-04-16T09:56:24;98222.66;;;19.83;nan
6194;BME280;3130;41.564;23.280;2023-04-16T09:58:55;98230.78;;;20.12;nan
6194;BME280;3130;41.564;23.280;2023-04-16T10:01:23;98241.94;;;20.28;nan
6194;BME280;3130;41.564;23.280;2023-04-16T10:03:53;98232.69;;;20.26;nan
6194;BME280;3130;41.564;23.280;2023-04-16T10:06:22;98183.47;;;20.00;nan
6194;BME280;3130;41.564;23.280;2023-04-16T10:08:50;98242.06;;;20.42;nan
6194;BME280;3130;41.564;23.280;2023-04-16T10:11:19;98236.41;;;20.31;nan
6194;BME280;3130;41.564;23.280;2023-04-16T10:13:48;98197.22;;;20.17;nan
6194;BME280;3130;41.564;23.280;2023-04-16T10:16:16;98232.16;;;20.30;nan
6194;BME280;3130;41.564;23.280;2023-04-16T10:18:44;98235.09;;;20.35;nan
6194;BME280;3130;41.564;23.280;2023-04-16T10:21:11;98225.75;;;20.02;nan
6194;BME280;3130;41.564;23.280;2023-04-16T10:23:41;98215.16;;;20.04;nan
6194;BME280;3130;41.564;23.280;2023-04-16T10:26:08;98201.66;;;19.92;nan
6194;BME280;3130;41.564;23.280;2023-04-16T10:28:35;98212.44;;;19.97;nan
6194;BME280;3130;41.564;23.280;2023-04-16T10:31:05;98218.25;;;20.07;nan
6194;BME280;3130;41.564;23.280;2023-04-16T10:33:35;98219.38;;;19.97;nan
6194;BME280;3130;41.564;23.280;2023-04-16T10:36:07;98196.47;;;19.92;nan
6194;BME280;3130;41.564;23.280;2023-04-16T10:38:38;98195.94;;;20.13;nan
6194;BME280;3130;41.564;23.280;2023-04-16T10:41:06;98209.31;;;20.40;nan
6194;BME280;3130;41.564;23.280;2023-04-16T10:43:38;98202.69;;;20.68;nan
6194;BME280;3130;41.564;23.280;2023-04-16T10:46:21;98193.25;;;20.97;nan
6194;BME280;3130;41.564;23.280;2023-04-16T10:48:52;98192.19;;;20.84;nan
6194;BME280;3130;41.564;23.280;2023-04-16T10:51:37;98198.03;;;20.78;nan
6194;BME280;3130;41.564;23.280;2023-04-16T10:54:19;98191.31;;;20.91;nan
6194;BME280;3130;41.564;23.280;2023-04-16T10:56:46;98189.03;;;21.11;nan
6194;BME280;3130;41.564;23.280;2023-04-16T10:59:17;98110.94;;;20.72;nan
6194;BME280;3130;41.564;23.280;2023-04-16T11:01:49;98184.28;;;21.36;nan
6194;BME280;3130;41.564;23.280;2023-04-16T11:04:32;98133.69;;;21.23;nan
6194;BME280;3130;41.564;23.280;2023-04-16T11:07:00;98144.13;;;21.23;nan
6194;BME280;3130;41.564;23.280;2023-04-16T11:09:54;98176.94;;;21.18;nan
6194;BME280;3130;41.564;23.280;2023-04-16T11:12:23;98160.13;;;20.98;nan
6194;BME280;3130;41.564;23.280;2023-04-16T11:14:53;98135.41;;;20.94;nan
6194;BME280;3130;41.564;23.280;2023-04-16T11:17:21;98141.06;;;21.20;nan
6194;BME280;3130;41.564;23.280;2023-04-16T11:19:49;98175.16;;;21.33;nan
6194;BME280;3130;41.564;23.280;2023-04-16T11:22:16;98178.47;;;21.27;nan
6194;BME280;3130;41.564;23.280;2023-04-16T11:24:46;98185.28;;;21.50;nan
6194;BME280;3130;41.564;23.280;2023-04-16T11:27:13;98118.91;;;21.16;nan
6194;BME280;3130;41.564;23.280;2023-04-16T11:29:40;98165.28;;;21.65;nan
6194;BME280;3130;41.564;23.280;2023-04-16T11:32:08;98152.72;;;21.46;nan
6194;BME280;3130;41.564;23.280;2023-04-16T11:34:44;98120.09;;;20.68;nan
6194;BME280;3130;41.564;23.280;2023-04-16T11:37:11;98098.34;;;20.61;nan
6194;BME280;3130;41.564;23.280;2023-04-16T11:39:49;98130.75;;;20.59;nan
6194;BME280;3130;41.564;23.280;2023-04-16T11:42:21;98172.94;;;20.85;nan
6194;BME280;3130;41.564;23.280;2023-04-16T11:44:56;98168.84;;;20.60;nan
6194;BME280;3130;41.564;23.280;2023-04-16T11:47:25;98094.31;;;19.90;nan
6194;BME280;3130;41.564;23.280;2023-04-16T11:49:54;98118.41;;;20.00;nan
6194;BME280;3130;41.564;23.280;2023-04-16T11:52:24;98161.44;;;20.41;nan
6194;BME280;3130;41.564;23.280;2023-04-16T11:54:53;98158.00;;;20.48;nan
6194;BME280;3130;41.564;23.280;2023-04-16T11:57:27;98164.56;;;20.67;nan
6194;BME280;3130;41.564;23.280;2023-04-16T11:59:54;98164.78;;;20.88;nan
6194;BME280;3130;41.564;23.280;2023-04-16T12:02:35;98159.19;;;20.68;nan
6194;BME280;3130;41.564;23.280;2023-04-16T12:05:05;98150.19;;;20.79;nan
6194;BME280;3130;41.564;23.280;2023-04-16T12:07:42;98148.03;;;20.82;nan
6194;BME280;3130;41.564;23.280;2023-04-16T12:10:10;98130.25;;;20.86;nan
6194;BME280;3130;41.564;23.280;2023-04-16T12:12:38;98148.84;;;21.05;nan
6194;BME280;3130;41.564;23.280;2023-04-16T12:15:05;98151.66;;;20.81;nan
6194;BME280;3130;41.564;23.280;2023-04-16T12:17:33;98148.06;;;20.74;nan
6194;BME280;3130;41.564;23.280;2023-04-16T12:20:07;98124.44;;;20.53;nan
6194;BME280;3130;41.564;23.280;2023-04-16T12:22:35;98136.69;;;20.45;nan
6194;BME280;3130;41.564;23.280;2023-04-16T12:25:04;98040.78;;;19.65;nan
6194;BME280;3130;41.564;23.280;2023-04-16T12:27:45;98137.47;;;20.23;nan
6194;BME280;3130;41.564;23.280;2023-04-16T12:30:13;98139.59;;;20.20;nan
6194;BME280;3130;41.564;23.280;2023-04-16T12:32:41;98136.69;;;20.45;nan
6194;BME280;3130;41.564;23.280;2023-04-16T12:35:11;98070.94;;;20.21;nan
6194;BME280;3130;41.564;23.280;2023-04-16T12:37:39;98094.38;;;20.21;nan
6194;BME280;3130;41.564;23.280;2023-04-16T12:40:08;98112.69;;;20.35;nan
6194;BME280;3130;41.564;23.280;2023-04-16T12:42:35;98067.81;;;19.87;nan
6194;BME280;3130;41.564;23.280;2023-04-16T12:45:04;98095.63;;;19.86;nan
6194;BME280;3130;41.564;23.280;2023-04-16T12:47:31;98055.34;;;19.28;nan
6194;BME280;3130;41.564;23.280;2023-04-16T12:49:59;98149.53;;;19.70;nan
6194;BME280;3130;41.564;23.280;2023-04-16T12:52:29;98149.53;;;19.62;nan
6194;BME280;3130;41.564;23.280;2023-04-16T12:54:56;98048.75;;;18.70;nan
6194;BME280;3130;41.564;23.280;2023-04-16T12:57:23;98116.78;;;18.81;nan
6194;BME280;3130;41.564;23.280;2023-04-16T12:59:53;98032.53;;;17.71;nan
6194;BME280;3130;41.564;23.280;2023-04-16T13:02:21;98119.59;;;18.22;nan
6194;BME280;3130;41.564;23.280;2023-04-16T13:04:49;98185.53;;;18.37;nan
6194;BME280;3130;41.564;23.280;2023-04-16T13:07:16;98135.34;;;17.80;nan
6194;BME280;3130;41.564;23.280;2023-04-16T13:09:45;98201.38;;;17.93;nan
6194;BME280;3130;41.564;23.280;2023-04-16T13:12:12;98208.84;;;17.71;nan
6194;BME280;3130;41.564;23.280;2023-04-16T13:14:40;98146.31;;;17.06;nan
6194;BME280;3130;41.564;23.280;2023-04-16T13:17:07;98207.69;;;17.40;nan
6194;BME280;3130;41.564;23.280;2023-04-16T13:19:34;98092.84;;;16.27;nan
6194;BME280;3130;41.564;23.280;2023-04-16T13:22:01;98148.25;;;16.07;nan
6194;BME280;3130;41.564;23.280;2023-04-16T13:24:29;98209.38;;;16.62;nan
6194;BME280;3130;41.564;23.280;2023-04-16T13:27:06;98141.50;;;15.70;nan
6194;BME280;3130;41.564;23.280;2023-04-16T13:29:33;98095.59;;;14.80;nan
6194;BME280;3130;41.564;23.280;2023-04-16T13:32:02;98076.88;;;14.59;nan
6194;BME280;3130;41.564;23.280;2023-04-16T13:34:29;98075.84;;;14.04;nan
6194;BME280;3130;41.564;23.280;2023-04-16T13:36:56;98066.38;;;14.04;nan